<?xml version="1.0" encoding="UTF-8" standalone="no" ?>
<gpx xmlns="http://www.topografix.com/GPX/1/1" xmlns:xsi="http://www.w3.org/2001/XMLSchema-instance" xsi:schemaLocation="http://www.topografix.com/GPX/1/1 http://www.topografix.com/GPX/1/1/gpx.xsd" version="1.1" creator="VisuGPX - https://www.visugpx.com">
  <metadata>
    <name>Etape 2 Férel - Les Moûtiers</name>
    <desc><![CDATA[Randonnée vélo Rennes - Hendaye, empruntant la Vélodyssée à partir de Saint-Brevin-Les-Pins. ]]></desc>
  </metadata>
  <trk>
    <name><![CDATA[Sequence 30]]></name>
    <trkseg>
      <trkpt lat="47.1143" lon="-2.0996">
        <ele>-2</ele>
        <time>2016-07-22T14:09:19Z</time>
      </trkpt>
      <trkpt lat="47.11427" lon="-2.0998">
        <ele>11</ele>
        <time>2016-07-22T14:09:25Z</time>
      </trkpt>
      <trkpt lat="47.11447" lon="-2.09996">
        <ele>20</ele>
        <time>2016-07-22T14:09:31Z</time>
      </trkpt>
      <trkpt lat="47.11438" lon="-2.10036">
        <ele>19</ele>
        <time>2016-07-22T14:09:38Z</time>
      </trkpt>
      <trkpt lat="47.11436" lon="-2.10042">
        <ele>19</ele>
        <time>2016-07-22T14:09:39Z</time>
      </trkpt>
      <trkpt lat="47.1143" lon="-2.10077">
        <ele>19</ele>
        <time>2016-07-22T14:09:44Z</time>
      </trkpt>
      <trkpt lat="47.11429" lon="-2.10107">
        <ele>18</ele>
        <time>2016-07-22T14:09:50Z</time>
      </trkpt>
      <trkpt lat="47.11425" lon="-2.10129">
        <ele>18</ele>
        <time>2016-07-22T14:09:54Z</time>
      </trkpt>
      <trkpt lat="47.11419" lon="-2.10162">
        <ele>21</ele>
        <time>2016-07-22T14:10:00Z</time>
      </trkpt>
      <trkpt lat="47.11415" lon="-2.10181">
        <ele>22</ele>
        <time>2016-07-22T14:10:04Z</time>
      </trkpt>
      <trkpt lat="47.11408" lon="-2.10206">
        <ele>22</ele>
        <time>2016-07-22T14:10:09Z</time>
      </trkpt>
      <trkpt lat="47.11395" lon="-2.10231">
        <ele>17</ele>
        <time>2016-07-22T14:10:14Z</time>
      </trkpt>
      <trkpt lat="47.11377" lon="-2.10252">
        <ele>11</ele>
        <time>2016-07-22T14:10:19Z</time>
      </trkpt>
      <trkpt lat="47.11358" lon="-2.10275">
        <ele>7</ele>
        <time>2016-07-22T14:10:24Z</time>
      </trkpt>
      <trkpt lat="47.11336" lon="-2.10311">
        <ele>3</ele>
        <time>2016-07-22T14:10:32Z</time>
      </trkpt>
      <trkpt lat="47.11322" lon="-2.10332">
        <ele>3</ele>
        <time>2016-07-22T14:10:37Z</time>
      </trkpt>
      <trkpt lat="47.11315" lon="-2.10338">
        <ele>3</ele>
        <time>2016-07-22T14:10:39Z</time>
      </trkpt>
      <trkpt lat="47.113" lon="-2.10351">
        <ele>3</ele>
        <time>2016-07-22T14:10:44Z</time>
      </trkpt>
      <trkpt lat="47.11289" lon="-2.10361">
        <ele>4</ele>
        <time>2016-07-22T14:10:49Z</time>
      </trkpt>
      <trkpt lat="47.11266" lon="-2.10373">
        <ele>5</ele>
        <time>2016-07-22T14:10:57Z</time>
      </trkpt>
      <trkpt lat="47.11255" lon="-2.10377">
        <ele>5</ele>
        <time>2016-07-22T14:11:01Z</time>
      </trkpt>
      <trkpt lat="47.11248" lon="-2.1038">
        <ele>5</ele>
        <time>2016-07-22T14:11:04Z</time>
      </trkpt>
      <trkpt lat="47.11234" lon="-2.10385">
        <ele>5</ele>
        <time>2016-07-22T14:11:09Z</time>
      </trkpt>
      <trkpt lat="47.11218" lon="-2.10411">
        <ele>6</ele>
        <time>2016-07-22T14:11:16Z</time>
      </trkpt>
      <trkpt lat="47.11212" lon="-2.10424">
        <ele>7</ele>
        <time>2016-07-22T14:11:19Z</time>
      </trkpt>
      <trkpt lat="47.11201" lon="-2.1044">
        <ele>8</ele>
        <time>2016-07-22T14:11:24Z</time>
      </trkpt>
      <trkpt lat="47.11184" lon="-2.10448">
        <ele>9</ele>
        <time>2016-07-22T14:11:29Z</time>
      </trkpt>
      <trkpt lat="47.11166" lon="-2.10451">
        <ele>8</ele>
        <time>2016-07-22T14:11:34Z</time>
      </trkpt>
      <trkpt lat="47.11147" lon="-2.10442">
        <ele>9</ele>
        <time>2016-07-22T14:11:39Z</time>
      </trkpt>
      <trkpt lat="47.11129" lon="-2.10426">
        <ele>8</ele>
        <time>2016-07-22T14:11:44Z</time>
      </trkpt>
      <trkpt lat="47.11104" lon="-2.1042">
        <ele>6</ele>
        <time>2016-07-22T14:11:49Z</time>
      </trkpt>
      <trkpt lat="47.11088" lon="-2.10442">
        <ele>7</ele>
        <time>2016-07-22T14:11:54Z</time>
      </trkpt>
      <trkpt lat="47.1108" lon="-2.1047">
        <ele>9</ele>
        <time>2016-07-22T14:11:59Z</time>
      </trkpt>
      <trkpt lat="47.11072" lon="-2.10492">
        <ele>11</ele>
        <time>2016-07-22T14:12:04Z</time>
      </trkpt>
      <trkpt lat="47.11066" lon="-2.10509">
        <ele>15</ele>
        <time>2016-07-22T14:12:09Z</time>
      </trkpt>
      <trkpt lat="47.11054" lon="-2.10525">
        <ele>15</ele>
        <time>2016-07-22T14:12:14Z</time>
      </trkpt>
      <trkpt lat="47.11043" lon="-2.1054">
        <ele>14</ele>
        <time>2016-07-22T14:12:19Z</time>
      </trkpt>
      <trkpt lat="47.11026" lon="-2.10559">
        <ele>14</ele>
        <time>2016-07-22T14:12:24Z</time>
      </trkpt>
      <trkpt lat="47.11003" lon="-2.10586">
        <ele>13</ele>
        <time>2016-07-22T14:12:29Z</time>
      </trkpt>
      <trkpt lat="47.10989" lon="-2.10617">
        <ele>13</ele>
        <time>2016-07-22T14:12:34Z</time>
      </trkpt>
      <trkpt lat="47.10992" lon="-2.10645">
        <ele>13</ele>
        <time>2016-07-22T14:12:39Z</time>
      </trkpt>
      <trkpt lat="47.10982" lon="-2.10687">
        <ele>13</ele>
        <time>2016-07-22T14:12:46Z</time>
      </trkpt>
      <trkpt lat="47.10972" lon="-2.10699">
        <ele>13</ele>
        <time>2016-07-22T14:12:49Z</time>
      </trkpt>
      <trkpt lat="47.10957" lon="-2.10721">
        <ele>12</ele>
        <time>2016-07-22T14:12:54Z</time>
      </trkpt>
      <trkpt lat="47.10939" lon="-2.10743">
        <ele>11</ele>
        <time>2016-07-22T14:12:59Z</time>
      </trkpt>
      <trkpt lat="47.1091" lon="-2.10733">
        <ele>12</ele>
        <time>2016-07-22T14:13:06Z</time>
      </trkpt>
      <trkpt lat="47.10883" lon="-2.10728">
        <ele>7</ele>
        <time>2016-07-22T14:13:12Z</time>
      </trkpt>
      <trkpt lat="47.10875" lon="-2.10731">
        <ele>6</ele>
        <time>2016-07-22T14:13:14Z</time>
      </trkpt>
      <trkpt lat="47.10852" lon="-2.10737">
        <ele>5</ele>
        <time>2016-07-22T14:13:19Z</time>
      </trkpt>
      <trkpt lat="47.10835" lon="-2.10714">
        <ele>4</ele>
        <time>2016-07-22T14:13:24Z</time>
      </trkpt>
      <trkpt lat="47.10817" lon="-2.10694">
        <ele>6</ele>
        <time>2016-07-22T14:13:29Z</time>
      </trkpt>
      <trkpt lat="47.10803" lon="-2.10666">
        <ele>6</ele>
        <time>2016-07-22T14:13:34Z</time>
      </trkpt>
      <trkpt lat="47.1078" lon="-2.1064">
        <ele>7</ele>
        <time>2016-07-22T14:13:40Z</time>
      </trkpt>
      <trkpt lat="47.10753" lon="-2.10613">
        <ele>5</ele>
        <time>2016-07-22T14:13:47Z</time>
      </trkpt>
      <trkpt lat="47.10746" lon="-2.10603">
        <ele>3</ele>
        <time>2016-07-22T14:13:49Z</time>
      </trkpt>
      <trkpt lat="47.1073" lon="-2.10591">
        <ele>4</ele>
        <time>2016-07-22T14:13:54Z</time>
      </trkpt>
      <trkpt lat="47.10712" lon="-2.10586">
        <ele>5</ele>
        <time>2016-07-22T14:13:59Z</time>
      </trkpt>
      <trkpt lat="47.10708" lon="-2.10581">
        <ele>5</ele>
        <time>2016-07-22T14:14:04Z</time>
      </trkpt>
      <trkpt lat="47.10719" lon="-2.10584">
        <ele>7</ele>
        <time>2016-07-22T14:14:09Z</time>
      </trkpt>
      <trkpt lat="47.10733" lon="-2.10574">
        <ele>19</ele>
        <time>2016-07-22T14:14:16Z</time>
      </trkpt>
      <trkpt lat="47.10733" lon="-2.10571">
        <ele>19</ele>
        <time>2016-07-22T14:14:19Z</time>
      </trkpt>
      <trkpt lat="47.10737" lon="-2.10554">
        <ele>19</ele>
        <time>2016-07-22T14:14:24Z</time>
      </trkpt>
      <trkpt lat="47.10746" lon="-2.10538">
        <ele>16</ele>
        <time>2016-07-22T14:14:29Z</time>
      </trkpt>
      <trkpt lat="47.10757" lon="-2.10511">
        <ele>18</ele>
        <time>2016-07-22T14:14:38Z</time>
      </trkpt>
      <trkpt lat="47.10761" lon="-2.10503">
        <ele>19</ele>
        <time>2016-07-22T14:14:40Z</time>
      </trkpt>
      <trkpt lat="47.10769" lon="-2.10489">
        <ele>21</ele>
        <time>2016-07-22T14:14:45Z</time>
      </trkpt>
      <trkpt lat="47.10777" lon="-2.10466">
        <ele>20</ele>
        <time>2016-07-22T14:14:52Z</time>
      </trkpt>
      <trkpt lat="47.10788" lon="-2.10441">
        <ele>22</ele>
        <time>2016-07-22T14:14:58Z</time>
      </trkpt>
      <trkpt lat="47.10794" lon="-2.1043">
        <ele>19</ele>
        <time>2016-07-22T14:15:01Z</time>
      </trkpt>
      <trkpt lat="47.10798" lon="-2.10423">
        <ele>17</ele>
        <time>2016-07-22T14:15:04Z</time>
      </trkpt>
      <trkpt lat="47.10805" lon="-2.10403">
        <ele>18</ele>
        <time>2016-07-22T14:15:10Z</time>
      </trkpt>
      <trkpt lat="47.10811" lon="-2.10389">
        <ele>18</ele>
        <time>2016-07-22T14:15:14Z</time>
      </trkpt>
      <trkpt lat="47.10824" lon="-2.10362">
        <ele>20</ele>
        <time>2016-07-22T14:15:23Z</time>
      </trkpt>
      <trkpt lat="47.10826" lon="-2.10358">
        <ele>19</ele>
        <time>2016-07-22T14:15:24Z</time>
      </trkpt>
      <trkpt lat="47.10832" lon="-2.10344">
        <ele>15</ele>
        <time>2016-07-22T14:15:29Z</time>
      </trkpt>
      <trkpt lat="47.1084" lon="-2.10327">
        <ele>16</ele>
        <time>2016-07-22T14:15:34Z</time>
      </trkpt>
      <trkpt lat="47.1085" lon="-2.10305">
        <ele>16</ele>
        <time>2016-07-22T14:15:39Z</time>
      </trkpt>
      <trkpt lat="47.10863" lon="-2.10279">
        <ele>19</ele>
        <time>2016-07-22T14:15:46Z</time>
      </trkpt>
      <trkpt lat="47.1087" lon="-2.10262">
        <ele>20</ele>
        <time>2016-07-22T14:15:49Z</time>
      </trkpt>
      <trkpt lat="47.10887" lon="-2.1022">
        <ele>20</ele>
        <time>2016-07-22T14:15:57Z</time>
      </trkpt>
      <trkpt lat="47.10893" lon="-2.1021">
        <ele>20</ele>
        <time>2016-07-22T14:15:59Z</time>
      </trkpt>
      <trkpt lat="47.10903" lon="-2.10185">
        <ele>23</ele>
        <time>2016-07-22T14:16:04Z</time>
      </trkpt>
      <trkpt lat="47.10915" lon="-2.10161">
        <ele>23</ele>
        <time>2016-07-22T14:16:09Z</time>
      </trkpt>
      <trkpt lat="47.1093" lon="-2.10128">
        <ele>24</ele>
        <time>2016-07-22T14:16:16Z</time>
      </trkpt>
      <trkpt lat="47.10936" lon="-2.10115">
        <ele>26</ele>
        <time>2016-07-22T14:16:19Z</time>
      </trkpt>
      <trkpt lat="47.10946" lon="-2.10091">
        <ele>28</ele>
        <time>2016-07-22T14:16:24Z</time>
      </trkpt>
      <trkpt lat="47.10963" lon="-2.10053">
        <ele>31</ele>
        <time>2016-07-22T14:16:32Z</time>
      </trkpt>
      <trkpt lat="47.10967" lon="-2.10044">
        <ele>31</ele>
        <time>2016-07-22T14:16:34Z</time>
      </trkpt>
      <trkpt lat="47.10978" lon="-2.10018">
        <ele>30</ele>
        <time>2016-07-22T14:16:42Z</time>
      </trkpt>
      <trkpt lat="47.1099" lon="-2.10001">
        <ele>27</ele>
        <time>2016-07-22T14:16:47Z</time>
      </trkpt>
    </trkseg>
  </trk>
</gpx>